Pagina principale
METAR-TAF:

METAR-TAF

Aeroporti :

Qaisumah, Arabia Saudita

latitudine: 28-19N, longitudine: 046-07E, altezza: 358 m

Osservazione

Il bollettino è stato emesso 23 minuti fa, alle 06:00 UTC
Vento 4 kt da nord/nord-ovest
Temperature 38°C
Umidità 20%
Pressione 1004 hPa
Visibilità 10 km o più
nessuna nube inferiore a 1500 m e nessun cumulonembo

METAR: OEPA 270600Z 33004KT CAVOK 38/11 Q1004 NOSIG

Ora: 09:23 (06:23 UTC)

Previsione

Il bollettino è stato emesso 7 ore e 23 minuti fa, alle 23:00 UTC
Previsione valida dal 27 alle 00 UTC al 28 alle 06 UTC
Vento 3 kt da direzioni variabili
Visibilità 10 km o più
nessuna nube inferiore a 1500 m e nessun cumulonembo
Evoluzione graduale
dal 27 alle 06 UTC al 27 alle 08 UTC
Vento 12 kt da nord/nord-ovest

TAF: OEPA 262300Z 2700/2806 VRB03KT CAVOK BECMG 2706/2708 33012KT

Osservazioni e previsioni meteorologiche di più di 4000 aeroporti (messaggi METAR e TAF).

Le stazioni disponibili sono rappresentate dai dischi gialli e rossi sulla carta.

Puntare il mouse per vedere il nome della stazione.

Clicca sopra per visualizzare le osservazioni e previsioni meteorologiche.

Per cambiare la mappa : fare clic sui pulsanti verdi con una croce nera per ingrandire, il pulsante verde con un trattino per diminuire, o sulla freccia verde per le mappe adiacenti.


METAR-TAF: